Time,TemperatureF,DewpointF,PressureIn,WindDirection,WindDirectionDegrees,WindSpeedMPH,WindSpeedGustMPH,Humidity,HourlyPrecipIn,Conditions,Clouds,dailyrainin,SoftwareType,DateUTC
2013-04-29 00:04:00,71.2,71.2,29.93,NE,54,6.2,9.2,100,0.00,RA,,0.00,WeatherDisplay:10.37,2013-04-29 05:04:00,
2013-04-29 00:09:00,71.1,71.1,29.94,ENE,71,7.3,9.2,100,0.00,RA,,0.00,WeatherDisplay:10.37,2013-04-29 05:09:00,
2013-04-29 00:14:00,71.2,71.2,29.94,East,88,1.4,4.6,100,0.00,RA,,0.00,WeatherDisplay:10.37,2013-04-29 05:14:00,
2013-04-29 00:19:00,71.1,71.1,29.95,NE,55,0.9,3.5,100,0.00,RA,,0.00,WeatherDisplay:10.37,2013-04-29 05:19:00,
2013-04-29 00:24:00,71.2,71.2,29.95,NE,55,0.0,0.0,100,0.00,CLR,,0.00,WeatherDisplay:10.37,2013-04-29 05:24:00,
2013-04-29 00:29:00,71.1,71.1,29.95,NE,55,0.0,0.0,100,0.00,CLR,,0.00,WeatherDisplay:10.37,2013-04-29 05:29:00,
2013-04-29 00:34:00,71.2,71.2,29.95,NE,42,0.0,0.0,100,0.00,CLR,,0.00,WeatherDisplay:10.37,2013-04-29 05:34:00,
2013-04-29 00:39:00,71.2,71.2,29.95,NE,42,0.0,0.0,100,0.00,CLR,,0.00,WeatherDisplay:10.37,2013-04-29 05:39:00,
2013-04-29 00:44:00,71.2,71.2,29.95,East,83,0.7,4.6,100,0.00,CLR,,0.00,WeatherDisplay:10.37,2013-04-29 05:44:00,
2013-04-29 00:49:00,71.2,71.2,29.95,East,83,0.0,0.0,100,0.00,CLR,,0.00,WeatherDisplay:10.37,2013-04-29 05:49:00,
2013-04-29 00:54:00,71.1,71.1,29.95,East,86,1.2,3.5,100,0.00,CLR,,0.00,WeatherDisplay:10.37,2013-04-29 05:54:00,
2013-04-29 00:59:00,71.2,71.2,29.94,ESE,109,2.4,3.5,100,0.00,CLR,,0.00,WeatherDisplay:10.37,2013-04-29 05:59:00,
2013-04-29 01:04:00,71.2,71.2,29.94,ESE,109,0.0,0.0,100,0.00,CLR,,0.00,WeatherDisplay:10.37,2013-04-29 06:04:00,
2013-04-29 01:09:00,71.2,71.2,29.94,ESE,107,2.7,4.5,100,0.00,CLR,,0.00,WeatherDisplay:10.37,2013-04-29 06:09:00,
2013-04-29 01:14:00,71.2,71.2,29.93,ESE,107,4.4,5.9,100,0.00,CLR,,0.00,WeatherDisplay:10.37,2013-04-29 06:14:00,
2013-04-29 01:19:00,71.1,71.1,29.93,East,85,0.0,4.6,100,0.00,CLR,,0.00,WeatherDisplay:10.37,2013-04-29 06:19:00,
2013-04-29 01:24:00,71.0,71.0,29.93,ENE,65,0.0,0.0,100,0.00,CLR,,0.00,WeatherDisplay:10.37,2013-04-29 06:24:00,
2013-04-29 01:29:00,70.9,70.9,29.93,ENE,65,0.0,0.0,100,0.00,CLR,,0.00,WeatherDisplay:10.37,2013-04-29 06:29:00,
2013-04-29 01:34:00,70.9,70.9,29.93,ENE,65,0.0,0.0,100,0.00,CLR,,0.00,WeatherDisplay:10.37,2013-04-29 06:34:00,
2013-04-29 01:39:00,70.9,70.9,29.92,East,83,0.0,0.0,100,0.00,CLR,,0.00,WeatherDisplay:10.37,2013-04-29 06:39:00,
2013-04-29 01:44:00,70.9,70.9,29.92,East,83,0.0,0.0,100,0.00,CLR,,0.00,WeatherDisplay:10.37,2013-04-29 06:44:00,
2013-04-29 01:49:00,70.8,70.8,29.92,East,83,0.0,0.0,100,0.00,CLR,,0.00,WeatherDisplay:10.37,2013-04-29 06:49:00,
2013-04-29 01:55:00,70.8,70.8,29.92,East,83,0.0,0.0,100,0.00,CLR,,0.00,WeatherDisplay:10.37,2013-04-29 06:55:00,
2013-04-29 02:00:00,70.7,70.7,29.91,East,92,2.4,5.0,100,0.00,CLR,,0.00,WeatherDisplay:10.37,2013-04-29 07:00:00,
2013-04-29 02:05:00,70.8,70.8,29.91,ENE,78,4.1,5.8,100,0.00,CLR,,0.00,WeatherDisplay:10.37,2013-04-29 07:05:00,
2013-04-29 02:10:00,70.7,70.7,29.91,East,85,4.2,6.9,100,0.00,CLR,,0.00,WeatherDisplay:10.37,2013-04-29 07:10:00,
2013-04-29 02:15:00,70.8,70.8,29.91,ESE,110,2.3,4.6,100,0.00,CLR,,0.00,WeatherDisplay:10.37,2013-04-29 07:15:00,
2013-04-29 02:20:00,70.8,70.8,29.90,East,86,4.0,6.4,100,0.00,CLR,,0.00,WeatherDisplay:10.37,2013-04-29 07:20:00,
2013-04-29 02:25:00,70.8,70.8,29.90,ENE,58,4.0,5.9,100,0.00,CLR,,0.00,WeatherDisplay:10.37,2013-04-29 07:25:00,
2013-04-29 02:30:00,70.7,70.7,29.89,NE,52,2.6,3.8,100,0.00,CLR,,0.00,WeatherDisplay:10.37,2013-04-29 07:30:00,
2013-04-29 02:35:00,70.7,70.7,29.89,ENE,58,5.3,6.9,100,0.00,CLR,,0.00,WeatherDisplay:10.37,2013-04-29 07:35:00,
2013-04-29 02:40:00,70.6,70.6,29.89,NE,52,3.8,6.9,100,0.00,CLR,,0.00,WeatherDisplay:10.37,2013-04-29 07:40:00,
2013-04-29 02:45:00,70.6,70.6,29.88,NE,54,5.7,8.1,100,0.00,CLR,,0.00,WeatherDisplay:10.37,2013-04-29 07:45:00,
2013-04-29 02:50:00,70.7,70.7,29.88,ENE,62,5.8,8.1,100,0.00,CLR,,0.00,WeatherDisplay:10.37,2013-04-29 07:50:00,
2013-04-29 02:55:00,70.7,70.7,29.88,NE,54,7.1,9.2,100,0.00,CLR,,0.00,WeatherDisplay:10.37,2013-04-29 07:55:00,
2013-04-29 03:00:00,70.7,70.7,29.87,ENE,71,7.3,9.9,100,0.00,CLR,,0.00,WeatherDisplay:10.37,2013-04-29 08:00:00,
2013-04-29 03:05:00,70.5,70.5,29.87,NE,37,7.0,11.1,100,0.00,CLR,,0.00,WeatherDisplay:10.37,2013-04-29 08:05:00,
2013-04-29 03:10:00,70.7,70.7,29.86,NE,34,7.5,10.4,100,0.00,CLR,,0.00,WeatherDisplay:10.37,2013-04-29 08:10:00,
2013-04-29 03:15:00,70.8,70.8,29.87,ENE,72,9.4,11.6,100,0.00,CLR,,0.00,WeatherDisplay:10.37,2013-04-29 08:15:00,
2013-04-29 03:20:00,70.6,70.6,29.87,ENE,69,9.3,14.0,100,0.00,CLR,,0.00,WeatherDisplay:10.37,2013-04-29 08:20:00,
2013-04-29 03:25:00,70.7,70.7,29.86,ENE,69,9.2,14.4,100,0.00,CLR,,0.00,WeatherDisplay:10.37,2013-04-29 08:25:00,
2013-04-29 03:30:00,70.8,70.8,29.87,ENE,78,7.9,11.9,100,0.00,CLR,,0.00,WeatherDisplay:10.37,2013-04-29 08:30:00,
2013-04-29 03:35:00,70.6,70.6,29.88,ENE,73,7.9,11.5,100,0.00,CLR,,0.00,WeatherDisplay:10.37,2013-04-29 08:35:00,
2013-04-29 03:40:00,70.8,70.8,29.87,East,89,8.7,16.1,100,0.00,CLR,,0.00,WeatherDisplay:10.37,2013-04-29 08:40:00,
2013-04-29 03:45:00,70.8,70.8,29.88,ENE,72,9.0,11.5,100,0.00,CLR,,0.00,WeatherDisplay:10.37,2013-04-29 08:45:00,
2013-04-29 03:50:00,70.8,70.8,29.88,East,95,6.1,10.4,100,0.00,CLR,,0.00,WeatherDisplay:10.37,2013-04-29 08:50:00,
2013-04-29 03:55:00,70.8,70.8,29.88,East,83,5.8,9.2,100,0.00,CLR,,0.00,WeatherDisplay:10.37,2013-04-29 08:55:00,
2013-04-29 04:00:00,70.6,70.6,29.88,ENE,65,7.2,10.4,100,0.00,CLR,,0.00,WeatherDisplay:10.37,2013-04-29 09:00:00,
2013-04-29 04:05:00,70.9,70.9,29.88,East,80,5.2,8.3,100,0.00,CLR,,0.00,WeatherDisplay:10.37,2013-04-29 09:05:00,
2013-04-29 04:10:00,70.8,70.8,29.88,ENE,72,0.1,5.8,100,0.00,CLR,,0.00,WeatherDisplay:10.37,2013-04-29 09:10:00,
2013-04-29 04:15:00,70.7,70.7,29.89,East,99,4.8,8.1,100,0.00,CLR,,0.00,WeatherDisplay:10.37,2013-04-29 09:15:00,
2013-04-29 04:20:00,70.8,70.8,29.89,East,97,6.7,9.2,100,0.00,CLR,,0.00,WeatherDisplay:10.37,2013-04-29 09:20:00,
2013-04-29 04:25:00,70.8,70.8,29.88,ESE,106,6.2,10.8,100,0.00,CLR,,0.00,WeatherDisplay:10.37,2013-04-29 09:25:00,
2013-04-29 04:30:00,70.8,70.8,29.88,ESE,107,7.9,11.5,100,0.00,CLR,,0.00,WeatherDisplay:10.37,2013-04-29 09:30:00,
2013-04-29 04:35:00,70.7,70.7,29.88,ESE,102,6.9,10.4,100,0.00,CLR,,0.00,WeatherDisplay:10.37,2013-04-29 09:35:00,
2013-04-29 04:40:00,70.7,70.7,29.88,East,95,6.3,10.4,100,0.00,CLR,,0.00,WeatherDisplay:10.37,2013-04-29 09:40:00,
2013-04-29 04:45:00,70.7,70.7,29.89,East,99,5.1,9.0,100,0.00,CLR,,0.00,WeatherDisplay:10.37,2013-04-29 09:45:00,
2013-04-29 04:50:00,70.8,70.8,29.89,ESE,116,6.9,10.4,100,0.00,CLR,,0.00,WeatherDisplay:10.37,2013-04-29 09:50:00,
2013-04-29 04:55:00,70.7,70.7,29.89,East,96,4.1,8.1,100,0.00,CLR,,0.00,WeatherDisplay:10.37,2013-04-29 09:55:00,
2013-04-29 05:00:00,70.8,70.8,29.89,SE,136,1.6,8.0,100,0.00,CLR,,0.00,WeatherDisplay:10.37,2013-04-29 10:00:00,
2013-04-29 05:05:00,70.9,70.9,29.89,SE,130,5.1,8.1,100,0.00,CLR,,0.00,WeatherDisplay:10.37,2013-04-29 10:05:00,
2013-04-29 05:10:00,70.8,70.8,29.89,ESE,113,5.1,8.4,100,0.00,CLR,,0.00,WeatherDisplay:10.37,2013-04-29 10:10:00,
2013-04-29 05:15:00,70.8,70.8,29.90,SE,126,5.8,9.2,100,0.00,CLR,,0.00,WeatherDisplay:10.37,2013-04-29 10:15:00,
2013-04-29 05:20:00,70.7,70.7,29.90,SSE,151,6.2,9.6,100,0.00,CLR,,0.00,WeatherDisplay:10.37,2013-04-29 10:20:00,
2013-04-29 05:25:00,70.9,70.9,29.90,SE,140,2.3,6.9,100,0.00,CLR,,0.00,WeatherDisplay:10.37,2013-04-29 10:25:00,
2013-04-29 05:30:00,70.8,70.8,29.90,SSE,161,4.6,8.6,100,0.00,CLR,,0.00,WeatherDisplay:10.37,2013-04-29 10:30:00,
2013-04-29 05:35:00,70.9,70.9,29.90,South,175,4.5,9.2,100,0.00,CLR,,0.00,WeatherDisplay:10.37,2013-04-29 10:35:00,
2013-04-29 05:40:00,70.9,70.9,29.90,ESE,120,6.0,9.2,100,0.00,CLR,,0.00,WeatherDisplay:10.37,2013-04-29 10:40:00,
2013-04-29 05:45:00,70.7,70.7,29.91,SSE,151,4.4,9.2,100,0.00,CLR,,0.00,WeatherDisplay:10.37,2013-04-29 10:45:00,
2013-04-29 05:50:00,70.8,70.8,29.91,SSE,151,5.5,8.3,100,0.00,CLR,,0.00,WeatherDisplay:10.37,2013-04-29 10:50:00,
2013-04-29 05:55:00,70.9,70.9,29.90,SE,127,4.9,8.5,100,0.00,CLR,,0.00,WeatherDisplay:10.37,2013-04-29 10:55:00,
2013-04-29 06:00:00,70.8,70.8,29.91,SE,145,0.0,6.9,100,0.00,CLR,,0.00,WeatherDisplay:10.37,2013-04-29 11:00:00,
2013-04-29 06:05:00,70.8,70.8,29.91,SSE,161,0.2,3.3,100,0.00,CLR,,0.00,WeatherDisplay:10.37,2013-04-29 11:05:00,
2013-04-29 06:10:00,70.8,70.8,29.91,SSE,148,0.5,2.3,100,0.00,CLR,,0.00,WeatherDisplay:10.37,2013-04-29 11:10:00,
2013-04-29 06:15:00,70.7,70.7,29.91,SSW,192,1.4,4.6,100,0.00,CLR,,0.00,WeatherDisplay:10.37,2013-04-29 11:15:00,
2013-04-29 06:20:00,70.7,70.7,29.91,SSE,164,0.0,0.0,100,0.00,CLR,,0.00,WeatherDisplay:10.37,2013-04-29 11:20:00,
2013-04-29 06:25:00,70.7,70.7,29.91,SSE,164,0.0,0.0,100,0.00,CLR,,0.00,WeatherDisplay:10.37,2013-04-29 11:25:00,
2013-04-29 06:30:00,70.6,70.6,29.91,SSE,164,0.0,0.0,100,0.00,CLR,,0.00,WeatherDisplay:10.37,2013-04-29 11:30:00,
2013-04-29 06:35:00,70.6,70.6,29.91,South,171,2.5,5.8,100,0.00,CLR,,0.00,WeatherDisplay:10.37,2013-04-29 11:35:00,
2013-04-29 06:40:00,70.6,70.6,29.91,ENE,61,1.5,4.8,100,0.00,CLR,,0.00,WeatherDisplay:10.37,2013-04-29 11:40:00,
2013-04-29 06:45:00,70.6,70.6,29.91,ESE,117,0.0,0.0,100,0.00,CLR,,0.00,WeatherDisplay:10.37,2013-04-29 11:45:00,
2013-04-29 06:50:00,70.5,70.5,29.90,ESE,117,0.0,0.0,100,0.00,CLR,,0.00,WeatherDisplay:10.37,2013-04-29 11:50:00,
2013-04-29 06:55:00,70.5,70.5,29.90,East,83,3.5,4.7,100,0.00,CLR,,0.00,WeatherDisplay:10.37,2013-04-29 11:55:00,
2013-04-29 07:00:00,70.5,70.5,29.90,SSW,199,0.1,3.5,100,0.00,CLR,,0.00,WeatherDisplay:10.37,2013-04-29 12:00:00,
2013-04-29 07:05:00,70.6,70.6,29.90,East,88,0.0,2.3,100,0.00,CLR,,0.00,WeatherDisplay:10.37,2013-04-29 12:05:00,
2013-04-29 07:10:00,70.6,70.6,29.91,East,93,0.2,2.7,100,0.00,CLR,,0.00,WeatherDisplay:10.37,2013-04-29 12:10:00,
2013-04-29 07:15:00,70.5,70.5,29.91,SE,127,0.0,0.0,100,0.00,CLR,,0.00,WeatherDisplay:10.37,2013-04-29 12:15:00,
2013-04-29 07:20:00,70.6,70.6,29.91,SE,127,0.0,0.0,100,0.00,CLR,,0.00,WeatherDisplay:10.37,2013-04-29 12:20:00,
2013-04-29 07:25:00,70.5,70.5,29.91,SE,127,0.0,0.0,100,0.00,CLR,,0.00,WeatherDisplay:10.37,2013-04-29 12:25:00,
2013-04-29 07:30:00,70.6,70.6,29.91,East,85,0.9,4.6,100,0.00,CLR,,0.00,WeatherDisplay:10.37,2013-04-29 12:30:00,
2013-04-29 07:35:00,70.5,70.5,29.91,East,85,0.0,0.0,100,0.00,CLR,,0.00,WeatherDisplay:10.37,2013-04-29 12:35:00,
2013-04-29 07:40:00,70.5,70.5,29.91,East,85,0.0,0.0,100,0.00,CLR,,0.00,WeatherDisplay:10.37,2013-04-29 12:40:00,
2013-04-29 07:45:00,70.5,70.5,29.91,East,85,0.0,0.0,100,0.00,CLR,,0.00,WeatherDisplay:10.37,2013-04-29 12:45:00,
2013-04-29 07:50:00,70.6,70.6,29.91,East,85,0.0,0.0,100,0.00,CLR,,0.00,WeatherDisplay:10.37,2013-04-29 12:50:00,
2013-04-29 07:55:00,70.7,70.7,29.91,East,85,0.0,0.0,100,0.00,CLR,,0.00,WeatherDisplay:10.37,2013-04-29 12:55:00,
2013-04-29 08:00:00,70.7,70.7,29.91,East,95,3.4,5.2,100,0.00,CLR,,0.00,WeatherDisplay:10.37,2013-04-29 13:00:00,
2013-04-29 08:05:00,70.9,70.9,29.91,East,89,4.5,6.8,100,0.00,CLR,,0.00,WeatherDisplay:10.37,2013-04-29 13:05:00,
2013-04-29 08:10:00,71.1,71.1,29.91,ENE,73,4.3,6.9,100,0.00,CLR,,0.00,WeatherDisplay:10.37,2013-04-29 13:10:00,
2013-04-29 08:15:00,71.1,71.1,29.91,ESE,120,2.5,5.8,100,0.00,CLR,,0.00,WeatherDisplay:10.37,2013-04-29 13:15:00,
2013-04-29 08:20:00,71.1,71.1,29.91,ESE,112,2.7,5.8,100,0.00,CLR,,0.00,WeatherDisplay:10.37,2013-04-29 13:20:00,
2013-04-29 08:25:00,71.1,71.1,29.91,ESE,117,1.0,6.2,100,0.00,CLR,,0.00,WeatherDisplay:10.37,2013-04-29 13:25:00,
2013-04-29 08:30:00,71.1,71.1,29.91,SE,134,0.3,1.0,100,0.00,CLR,,0.00,WeatherDisplay:10.37,2013-04-29 13:30:00,
2013-04-29 08:35:00,71.3,71.3,29.91,ESE,109,1.8,4.7,100,0.00,CLR,,0.00,WeatherDisplay:10.37,2013-04-29 13:35:00,
2013-04-29 08:40:00,71.3,71.3,29.91,East,99,2.7,5.8,100,0.00,CLR,,0.00,WeatherDisplay:10.37,2013-04-29 13:40:00,
2013-04-29 08:45:00,71.4,71.4,29.91,SE,134,3.8,4.6,100,0.00,CLR,,0.00,WeatherDisplay:10.37,2013-04-29 13:45:00,
2013-04-29 08:50:00,71.5,71.5,29.91,East,89,0.0,0.0,100,0.00,CLR,,0.00,WeatherDisplay:10.37,2013-04-29 13:50:00,
2013-04-29 08:55:00,71.7,71.7,29.90,East,89,0.0,0.0,100,0.00,CLR,,0.00,WeatherDisplay:10.37,2013-04-29 13:55:00,
2013-04-29 09:00:00,71.8,71.8,29.90,East,89,0.0,0.0,100,0.00,CLR,,0.00,WeatherDisplay:10.37,2013-04-29 14:00:00,
2013-04-29 09:05:00,71.8,71.8,29.90,East,89,0.0,0.0,100,0.00,CLR,,0.00,WeatherDisplay:10.37,2013-04-29 14:05:00,
2013-04-29 09:10:00,72.0,72.0,29.90,East,95,0.0,0.0,100,0.00,CLR,,0.00,WeatherDisplay:10.37,2013-04-29 14:10:00,
2013-04-29 09:15:00,72.0,72.0,29.89,East,95,0.0,0.0,100,0.00,CLR,,0.00,WeatherDisplay:10.37,2013-04-29 14:15:00,
2013-04-29 09:20:00,72.0,72.0,29.90,East,95,0.0,0.0,100,0.00,CLR,,0.00,WeatherDisplay:10.37,2013-04-29 14:20:00,
2013-04-29 09:25:00,72.0,72.0,29.89,East,95,0.0,0.0,100,0.00,CLR,,0.00,WeatherDisplay:10.37,2013-04-29 14:25:00,
2013-04-29 09:30:00,72.3,72.3,29.90,East,90,4.2,5.1,100,0.00,CLR,,0.00,WeatherDisplay:10.37,2013-04-29 14:30:00,
2013-04-29 09:35:00,72.6,72.6,29.89,NE,48,3.3,5.5,100,0.00,CLR,,0.00,WeatherDisplay:10.37,2013-04-29 14:35:00,
2013-04-29 09:40:00,72.7,72.7,29.89,East,92,4.5,8.1,100,0.00,CLR,,0.00,WeatherDisplay:10.37,2013-04-29 14:40:00,
2013-04-29 09:45:00,73.0,73.0,29.90,ENE,68,3.2,4.6,100,0.00,CLR,,0.00,WeatherDisplay:10.37,2013-04-29 14:45:00,
2013-04-29 09:50:00,73.3,73.3,29.90,ESE,123,3.7,4.6,100,0.00,CLR,,0.00,WeatherDisplay:10.37,2013-04-29 14:50:00,
2013-04-29 09:55:00,73.8,73.8,29.90,East,99,5.4,6.9,100,0.00,CLR,,0.00,WeatherDisplay:10.37,2013-04-29 14:55:00,
2013-04-29 10:00:00,74.2,74.2,29.90,ESE,117,5.3,6.9,100,0.00,CLR,,0.00,WeatherDisplay:10.37,2013-04-29 15:00:00,
2013-04-29 10:05:00,74.7,74.7,29.90,East,90,7.0,8.1,100,0.00,CLR,,0.00,WeatherDisplay:10.37,2013-04-29 15:05:00,
2013-04-29 10:10:00,74.9,74.9,29.90,East,86,6.6,8.4,100,0.00,CLR,,0.00,WeatherDisplay:10.37,2013-04-29 15:10:00,
2013-04-29 10:15:00,75.1,74.8,29.90,ENE,75,4.8,7.1,99,0.00,CLR,,0.00,WeatherDisplay:10.37,2013-04-29 15:15:00,
2013-04-29 10:20:00,75.1,74.5,29.90,ENE,69,5.1,8.1,98,0.00,CLR,,0.00,WeatherDisplay:10.37,2013-04-29 15:20:00,
2013-04-29 10:25:00,75.3,74.4,29.90,East,79,6.4,8.1,97,0.00,CLR,,0.00,WeatherDisplay:10.37,2013-04-29 15:25:00,
2013-04-29 10:30:00,75.8,74.9,29.90,ESE,104,6.5,8.3,97,0.00,CLR,,0.00,WeatherDisplay:10.37,2013-04-29 15:30:00,
2013-04-29 10:35:00,76.0,74.8,29.90,East,79,4.8,6.3,96,0.00,CLR,,0.00,WeatherDisplay:10.37,2013-04-29 15:35:00,
2013-04-29 10:40:00,76.5,74.6,29.91,ENE,75,6.0,8.1,94,0.00,CLR,,0.00,WeatherDisplay:10.37,2013-04-29 15:40:00,
2013-04-29 10:46:00,77.0,73.8,29.91,East,100,6.6,8.1,90,0.00,CLR,,0.00,WeatherDisplay:10.37,2013-04-29 15:46:00,
2013-04-29 10:51:00,77.3,73.8,29.91,ENE,65,5.7,6.9,89,0.00,CLR,,0.00,WeatherDisplay:10.37,2013-04-29 15:51:00,
2013-04-29 10:56:00,77.4,73.6,29.91,East,96,5.2,6.9,88,0.00,CLR,,0.00,WeatherDisplay:10.37,2013-04-29 15:56:00,
2013-04-29 11:01:00,77.7,73.5,29.91,ESE,110,7.6,10.4,87,0.00,CLR,,0.00,WeatherDisplay:10.37,2013-04-29 16:01:00,
2013-04-29 11:06:00,77.7,73.2,29.91,ESE,120,5.9,8.6,86,0.00,CLR,,0.00,WeatherDisplay:10.37,2013-04-29 16:06:00,
2013-04-29 11:11:00,77.7,72.8,29.92,East,99,5.2,8.1,85,0.00,CLR,,0.00,WeatherDisplay:10.37,2013-04-29 16:11:00,
2013-04-29 11:16:00,77.5,72.6,29.91,ESE,106,5.5,6.9,85,0.00,CLR,,0.00,WeatherDisplay:10.37,2013-04-29 16:16:00,
2013-04-29 11:21:00,77.8,72.9,29.91,NE,55,6.5,10.4,85,0.00,CLR,,0.00,WeatherDisplay:10.37,2013-04-29 16:21:00,
2013-04-29 11:26:00,78.1,72.9,29.91,East,93,8.2,12.7,84,0.00,CLR,,0.00,WeatherDisplay:10.37,2013-04-29 16:26:00,
2013-04-29 11:31:00,78.1,72.9,29.91,East,96,7.9,10.6,84,0.00,CLR,,0.00,WeatherDisplay:10.37,2013-04-29 16:31:00,
2013-04-29 11:36:00,78.3,72.7,29.91,East,85,6.6,9.5,83,0.00,CLR,,0.00,WeatherDisplay:10.37,2013-04-29 16:36:00,
2013-04-29 11:41:00,78.3,72.3,29.91,ENE,75,8.7,11.6,82,0.00,CLR,,0.00,WeatherDisplay:10.37,2013-04-29 16:41:00,
2013-04-29 11:46:00,78.4,72.4,29.91,East,85,7.2,10.4,82,0.00,CLR,,0.00,WeatherDisplay:10.37,2013-04-29 16:46:00,
2013-04-29 11:51:00,78.7,72.7,29.91,ENE,76,8.7,11.8,82,0.00,CLR,,0.00,WeatherDisplay:10.37,2013-04-29 16:51:00,
2013-04-29 11:57:00,78.8,72.5,29.92,ESE,103,7.5,11.5,81,0.00,CLR,,0.00,WeatherDisplay:10.37,2013-04-29 16:57:00,
2013-04-29 12:02:00,78.8,72.1,29.92,ESE,113,6.2,11.5,80,0.00,CLR,,0.00,WeatherDisplay:10.37,2013-04-29 17:02:00,
2013-04-29 12:07:00,78.9,71.8,29.92,ESE,109,9.5,13.8,79,0.00,CLR,,0.00,WeatherDisplay:10.37,2013-04-29 17:07:00,
2013-04-29 12:12:00,78.7,71.6,29.92,East,86,8.0,13.8,79,0.00,CLR,,0.00,WeatherDisplay:10.37,2013-04-29 17:12:00,
2013-04-29 12:17:00,78.4,71.3,29.92,ESE,120,7.3,11.5,79,0.00,CLR,,0.00,WeatherDisplay:10.37,2013-04-29 17:17:00,
2013-04-29 12:22:00,78.3,71.6,29.92,ESE,117,8.0,13.3,80,0.00,CLR,,0.00,WeatherDisplay:10.37,2013-04-29 17:22:00,
2013-04-29 12:27:00,78.1,71.4,29.91,East,100,10.4,14.0,80,0.00,CLR,,0.00,WeatherDisplay:10.37,2013-04-29 17:27:00,
2013-04-29 12:32:00,77.7,71.8,29.91,ESE,110,7.8,11.5,82,0.00,CLR,,0.00,WeatherDisplay:10.37,2013-04-29 17:32:00,
2013-04-29 12:37:00,77.2,71.6,29.91,SE,128,7.9,12.7,83,0.00,CLR,,0.00,WeatherDisplay:10.37,2013-04-29 17:37:00,
2013-04-29 12:42:00,77.2,72.0,29.92,ESE,106,10.3,13.8,84,0.00,CLR,,0.00,WeatherDisplay:10.37,2013-04-29 17:42:00,
2013-04-29 12:47:00,77.1,72.2,29.91,ESE,109,7.7,11.5,85,0.00,CLR,,0.00,WeatherDisplay:10.37,2013-04-29 17:47:00,
2013-04-29 12:52:00,76.9,72.0,29.91,ESE,107,9.0,12.7,85,0.00,CLR,,0.00,WeatherDisplay:10.37,2013-04-29 17:52:00,
2013-04-29 12:57:00,76.9,72.4,29.90,ESE,119,9.9,12.7,86,0.00,CLR,,0.00,WeatherDisplay:10.37,2013-04-29 17:57:00,
2013-04-29 13:02:00,77.0,72.5,29.91,East,96,8.0,12.2,86,0.00,CLR,,0.00,WeatherDisplay:10.37,2013-04-29 18:02:00,
2013-04-29 13:07:00,77.3,72.8,29.91,East,86,7.8,11.5,86,0.00,CLR,,0.00,WeatherDisplay:10.37,2013-04-29 18:07:00,
2013-04-29 13:12:00,77.7,72.5,29.90,East,93,10.6,14.2,84,0.00,CLR,,0.00,WeatherDisplay:10.37,2013-04-29 18:12:00,
2013-04-29 13:17:00,77.7,72.5,29.90,SE,124,7.4,12.4,84,0.00,CLR,,0.00,WeatherDisplay:10.37,2013-04-29 18:17:00,
2013-04-29 13:22:00,77.8,72.6,29.89,ESE,114,9.7,13.8,84,0.00,CLR,,0.00,WeatherDisplay:10.37,2013-04-29 18:22:00,
2013-04-29 13:27:00,77.9,72.7,29.90,East,89,9.0,12.7,84,0.00,CLR,,0.00,WeatherDisplay:10.37,2013-04-29 18:27:00,
2013-04-29 13:32:00,78.1,72.9,29.89,East,99,9.2,13.1,84,0.00,CLR,,0.00,WeatherDisplay:10.37,2013-04-29 18:32:00,
2013-04-29 13:37:00,78.4,72.8,29.89,East,90,8.2,11.5,83,0.00,CLR,,0.00,WeatherDisplay:10.37,2013-04-29 18:37:00,
2013-04-29 13:42:00,78.8,72.8,29.88,ESE,106,7.5,12.9,82,0.00,CLR,,0.00,WeatherDisplay:10.37,2013-04-29 18:42:00,
2013-04-29 14:02:00,79.4,71.9,29.88,ESE,117,9.0,12.6,78,0.00,CLR,,0.00,WeatherDisplay:10.37,2013-04-29 19:02:00,
2013-04-29 14:07:00,79.1,71.6,29.88,East,97,10.8,13.8,78,0.00,CLR,,0.00,WeatherDisplay:10.37,2013-04-29 19:07:00,
2013-04-29 14:12:00,79.1,72.0,29.88,ESE,106,12.3,16.8,79,0.00,CLR,,0.00,WeatherDisplay:10.37,2013-04-29 19:12:00,
2013-04-29 14:17:00,79.1,72.4,29.88,ESE,109,9.0,15.0,80,0.00,CLR,,0.00,WeatherDisplay:10.37,2013-04-29 19:17:00,
2013-04-29 14:22:00,79.5,72.4,29.87,ENE,76,7.9,12.7,79,0.00,CLR,,0.00,WeatherDisplay:10.37,2013-04-29 19:22:00,
2013-04-29 14:27:00,79.8,71.9,29.87,ESE,120,9.1,12.7,77,0.00,CLR,,0.00,WeatherDisplay:10.37,2013-04-29 19:27:00,
2013-04-29 14:32:00,80.0,71.8,29.87,East,92,10.2,13.1,76,0.00,CLR,,0.00,WeatherDisplay:10.37,2013-04-29 19:32:00,
2013-04-29 14:37:00,80.0,71.8,29.87,ENE,75,7.5,15.0,76,0.00,CLR,,0.00,WeatherDisplay:10.37,2013-04-29 19:37:00,
2013-04-29 14:42:00,79.8,71.2,29.87,East,97,10.4,13.8,75,0.00,CLR,,0.00,WeatherDisplay:10.37,2013-04-29 19:42:00,
2013-04-29 14:48:00,79.7,71.5,29.86,East,95,9.3,15.0,76,0.00,CLR,,0.00,WeatherDisplay:10.37,2013-04-29 19:48:00,
2013-04-29 14:53:00,79.5,71.7,29.86,ENE,68,8.7,13.8,77,0.00,CLR,,0.00,WeatherDisplay:10.37,2013-04-29 19:53:00,
2013-04-29 14:58:00,79.8,72.3,29.85,East,97,10.1,14.2,78,0.00,CLR,,0.00,WeatherDisplay:10.37,2013-04-29 19:58:00,
2013-04-29 15:20:00,80.5,71.4,29.85,ESE,103,10.1,15.2,74,0.00,CLR,,0.00,WeatherDisplay:10.37,2013-04-29 20:20:00,
2013-04-29 15:25:00,80.4,71.7,29.84,ESE,102,7.1,13.8,75,0.00,CLR,,0.00,WeatherDisplay:10.37,2013-04-29 20:25:00,
2013-04-29 15:30:00,80.3,72.0,29.84,ESE,120,10.3,15.5,76,0.00,CLR,,0.00,WeatherDisplay:10.37,2013-04-29 20:30:00,
2013-04-29 15:35:00,80.3,71.6,29.84,ESE,114,10.1,13.8,75,0.00,CLR,,0.00,WeatherDisplay:10.37,2013-04-29 20:35:00,
2013-04-29 15:40:00,80.4,71.7,29.84,ESE,121,11.6,16.1,75,0.00,CLR,,0.00,WeatherDisplay:10.37,2013-04-29 20:40:00,
2013-04-29 15:46:00,80.5,71.8,29.83,ENE,76,11.8,15.8,75,0.00,CLR,,0.00,WeatherDisplay:10.37,2013-04-29 20:46:00,
2013-04-29 15:51:00,80.4,71.7,29.84,East,97,11.8,16.1,75,0.00,CLR,,0.00,WeatherDisplay:10.37,2013-04-29 20:51:00,
2013-04-29 15:56:00,80.1,71.8,29.84,ESE,107,11.0,13.4,76,0.00,CLR,,0.00,WeatherDisplay:10.37,2013-04-29 20:56:00,
2013-04-29 16:01:00,79.8,71.9,29.84,East,93,10.5,13.4,77,0.00,CLR,,0.00,WeatherDisplay:10.37,2013-04-29 21:01:00,
2013-04-29 16:07:00,79.4,71.9,29.84,ESE,109,9.4,12.7,78,0.00,CLR,,0.00,WeatherDisplay:10.37,2013-04-29 21:07:00,
2013-04-29 16:12:00,79.0,71.9,29.83,East,88,8.4,16.1,79,0.00,CLR,,0.00,WeatherDisplay:10.37,2013-04-29 21:12:00,
2013-04-29 16:17:00,78.3,72.0,29.83,East,92,11.0,19.0,81,0.00,CLR,,0.00,WeatherDisplay:10.37,2013-04-29 21:17:00,
2013-04-29 16:22:00,77.7,72.1,29.82,East,90,14.8,20.7,83,0.00,CLR,,0.00,WeatherDisplay:10.37,2013-04-29 21:22:00,
2013-04-29 16:27:00,77.0,72.1,29.82,ENE,75,11.4,19.6,85,0.00,CLR,,0.00,WeatherDisplay:10.37,2013-04-29 21:27:00,
2013-04-29 16:32:00,76.7,72.5,29.82,ESE,119,14.7,19.6,87,0.00,CLR,,0.00,WeatherDisplay:10.37,2013-04-29 21:32:00,
2013-04-29 16:37:00,76.1,72.3,29.82,East,93,13.1,19.6,88,0.00,CLR,,0.00,WeatherDisplay:10.37,2013-04-29 21:37:00,
2013-04-29 16:42:00,75.9,72.8,29.82,East,97,12.9,19.0,90,0.00,CLR,,0.00,WeatherDisplay:10.37,2013-04-29 21:42:00,
2013-04-29 16:47:00,75.7,73.2,29.82,East,89,11.9,18.4,92,0.00,CLR,,0.00,WeatherDisplay:10.37,2013-04-29 21:47:00,
2013-04-29 16:52:00,75.4,73.2,29.81,East,93,12.3,20.7,93,0.00,CLR,,0.00,WeatherDisplay:10.37,2013-04-29 21:52:00,
2013-04-29 16:57:00,75.5,73.7,29.82,East,93,8.7,12.7,94,0.00,CLR,,0.00,WeatherDisplay:10.37,2013-04-29 21:57:00,
2013-04-29 17:02:00,75.4,73.9,29.82,East,93,11.8,16.1,95,0.01,RA,,0.01,WeatherDisplay:10.37,2013-04-29 22:02:00,
2013-04-29 17:07:00,75.2,74.0,29.82,ESE,109,11.5,15.4,96,0.01,RA,,0.01,WeatherDisplay:10.37,2013-04-29 22:07:00,
2013-04-29 17:12:00,75.0,73.8,29.82,East,89,11.2,15.0,96,0.01,RA,,0.01,WeatherDisplay:10.37,2013-04-29 22:12:00,
2013-04-29 17:17:00,74.9,73.7,29.82,East,90,11.0,16.1,96,0.01,RA,,0.01,WeatherDisplay:10.37,2013-04-29 22:17:00,
2013-04-29 17:22:00,74.7,73.8,29.82,East,96,8.9,16.6,97,0.01,CLR,,0.01,WeatherDisplay:10.37,2013-04-29 22:22:00,
2013-04-29 17:27:00,74.7,73.8,29.82,East,85,7.8,13.8,97,0.01,CLR,,0.01,WeatherDisplay:10.37,2013-04-29 22:27:00,
2013-04-29 17:32:00,74.7,73.8,29.82,ENE,75,7.3,13.8,97,0.02,RA,,0.02,WeatherDisplay:10.37,2013-04-29 22:32:00,
2013-04-29 17:37:00,74.7,73.8,29.82,East,88,6.2,10.4,97,0.02,RA,,0.02,WeatherDisplay:10.37,2013-04-29 22:37:00,
2013-04-29 17:42:00,74.9,74.3,29.82,East,82,8.6,12.8,98,0.02,RA,,0.02,WeatherDisplay:10.37,2013-04-29 22:42:00,
2013-04-29 17:47:00,74.6,74.0,29.82,East,90,9.5,15.0,98,0.02,RA,,0.02,WeatherDisplay:10.37,2013-04-29 22:47:00,
2013-04-29 17:52:00,74.6,74.0,29.82,ENE,62,12.3,16.1,98,0.02,CLR,,0.02,WeatherDisplay:10.37,2013-04-29 22:52:00,
2013-04-29 17:57:00,74.7,74.1,29.82,East,90,10.3,15.9,98,0.02,CLR,,0.02,WeatherDisplay:10.37,2013-04-29 22:57:00,
2013-04-29 18:02:00,74.6,74.0,29.82,East,85,10.5,16.1,98,0.01,CLR,,0.02,WeatherDisplay:10.37,2013-04-29 23:02:00,
2013-04-29 18:07:00,74.7,74.1,29.81,East,86,9.9,15.0,98,0.01,CLR,,0.02,WeatherDisplay:10.37,2013-04-29 23:07:00,
2013-04-29 18:12:00,74.6,74.0,29.81,East,85,8.6,12.0,98,0.01,CLR,,0.02,WeatherDisplay:10.37,2013-04-29 23:12:00,
2013-04-29 18:17:00,74.4,73.8,29.81,East,83,11.7,15.5,98,0.01,CLR,,0.02,WeatherDisplay:10.37,2013-04-29 23:17:00,
2013-04-29 18:22:00,74.4,73.8,29.81,ENE,76,11.2,16.1,98,0.01,CLR,,0.02,WeatherDisplay:10.37,2013-04-29 23:22:00,
2013-04-29 18:27:00,74.2,73.6,29.81,ENE,72,12.3,17.3,98,0.01,CLR,,0.02,WeatherDisplay:10.37,2013-04-29 23:27:00,
2013-04-29 18:32:00,74.2,73.9,29.81,ENE,62,11.3,14.2,99,0.00,CLR,,0.02,WeatherDisplay:10.37,2013-04-29 23:32:00,
2013-04-29 18:37:00,74.2,73.9,29.81,ENE,59,14.0,17.4,99,0.00,CLR,,0.02,WeatherDisplay:10.37,2013-04-29 23:37:00,
2013-04-29 18:42:00,74.2,73.9,29.81,East,79,10.5,17.3,99,0.00,CLR,,0.02,WeatherDisplay:10.37,2013-04-29 23:42:00,
2013-04-29 18:47:00,74.0,73.7,29.81,ENE,78,10.4,13.0,99,0.00,CLR,,0.02,WeatherDisplay:10.37,2013-04-29 23:47:00,
2013-04-29 18:52:00,74.0,73.7,29.81,ENE,69,9.8,15.0,99,0.00,CLR,,0.02,WeatherDisplay:10.37,2013-04-29 23:52:00,
2013-04-29 18:57:00,74.1,73.8,29.81,East,83,9.7,16.1,99,0.00,CLR,,0.02,WeatherDisplay:10.37,2013-04-29 23:57:00,
2013-04-29 19:02:00,74.0,73.7,29.81,ENE,71,9.3,13.8,99,0.00,CLR,,0.02,WeatherDisplay:10.37,2013-04-30 00:02:00,
2013-04-29 19:07:00,73.9,73.6,29.81,ENE,65,12.4,16.1,99,0.00,CLR,,0.02,WeatherDisplay:10.37,2013-04-30 00:07:00,
2013-04-29 19:12:00,73.8,73.5,29.81,ENE,65,9.2,16.1,99,0.00,CLR,,0.02,WeatherDisplay:10.37,2013-04-30 00:12:00,
2013-04-29 19:17:00,73.7,73.4,29.81,ENE,66,9.8,15.0,99,0.00,CLR,,0.02,WeatherDisplay:10.37,2013-04-30 00:17:00,
2013-04-29 19:22:00,73.7,73.4,29.81,ENE,69,12.1,16.2,99,0.00,CLR,,0.02,WeatherDisplay:10.37,2013-04-30 00:22:00,
2013-04-29 19:27:00,73.6,73.3,29.81,ENE,65,10.7,15.0,99,0.00,CLR,,0.02,WeatherDisplay:10.37,2013-04-30 00:27:00,
2013-04-29 19:32:00,73.4,73.4,29.81,ENE,76,11.1,18.4,100,0.00,CLR,,0.02,WeatherDisplay:10.37,2013-04-30 00:32:00,
2013-04-29 19:37:00,73.5,73.5,29.81,ENE,61,11.9,17.3,100,0.00,CLR,,0.02,WeatherDisplay:10.37,2013-04-30 00:37:00,
2013-04-29 19:42:00,73.4,73.4,29.82,NE,49,13.3,18.6,100,0.00,CLR,,0.02,WeatherDisplay:10.37,2013-04-30 00:42:00,
2013-04-29 19:47:00,73.5,73.5,29.81,NE,45,12.4,20.1,100,0.00,CLR,,0.02,WeatherDisplay:10.37,2013-04-30 00:47:00,
2013-04-29 19:53:00,73.4,73.4,29.81,East,85,15.0,19.6,100,0.00,CLR,,0.02,WeatherDisplay:10.37,2013-04-30 00:53:00,
2013-04-29 19:58:00,73.4,73.4,29.80,ENE,62,12.2,17.3,100,0.00,CLR,,0.02,WeatherDisplay:10.37,2013-04-30 00:58:00,
2013-04-29 20:03:00,73.4,73.4,29.79,ENE,65,12.6,18.4,100,0.00,CLR,,0.02,WeatherDisplay:10.37,2013-04-30 01:03:00,
2013-04-29 20:08:00,73.4,73.4,29.79,East,85,15.1,21.1,100,0.00,CLR,,0.02,WeatherDisplay:10.37,2013-04-30 01:08:00,
2013-04-29 20:13:00,73.2,73.2,29.79,East,95,14.0,16.1,100,0.00,CLR,,0.02,WeatherDisplay:10.37,2013-04-30 01:13:00,
2013-04-29 20:18:00,73.1,73.1,29.80,ENE,76,16.1,24.2,100,0.00,CLR,,0.02,WeatherDisplay:10.37,2013-04-30 01:18:00,
2013-04-29 20:23:00,73.2,73.2,29.81,NE,56,14.5,24.2,100,0.01,RA,,0.03,WeatherDisplay:10.37,2013-04-30 01:23:00,
2013-04-29 20:28:00,73.2,73.2,29.81,ENE,72,13.6,24.1,100,0.01,RA,,0.04,WeatherDisplay:10.37,2013-04-30 01:28:00,
2013-04-29 20:33:00,73.2,73.2,29.81,NNE,16,14.5,20.8,100,0.02,RA,,0.05,WeatherDisplay:10.37,2013-04-30 01:33:00,
2013-04-29 20:38:00,73.1,73.1,29.82,East,79,13.2,19.6,100,0.03,RA,,0.05,WeatherDisplay:10.37,2013-04-30 01:38:00,
2013-04-29 20:43:00,72.9,72.9,29.82,ENE,64,12.6,19.6,100,0.08,RA,,0.10,WeatherDisplay:10.37,2013-04-30 01:43:00,
2013-04-29 20:48:00,72.9,72.9,29.82,ENE,65,11.1,20.0,100,0.08,RA,,0.10,WeatherDisplay:10.37,2013-04-30 01:48:00,
2013-04-29 20:53:00,72.8,72.8,29.83,ENE,69,14.4,20.7,100,0.09,RA,,0.11,WeatherDisplay:10.37,2013-04-30 01:53:00,
2013-04-29 20:58:00,72.8,72.8,29.83,East,86,11.1,16.1,100,0.10,RA,,0.12,WeatherDisplay:10.37,2013-04-30 01:58:00,
2013-04-29 21:03:00,72.8,72.8,29.83,ENE,73,12.8,19.6,100,0.16,RA,,0.18,WeatherDisplay:10.37,2013-04-30 02:03:00,
2013-04-29 21:08:00,72.8,72.8,29.83,ENE,78,12.1,16.3,100,0.27,RA,,0.29,WeatherDisplay:10.37,2013-04-30 02:08:00,
2013-04-29 21:13:00,72.8,72.8,29.83,East,79,9.5,12.7,100,0.33,RA,,0.36,WeatherDisplay:10.37,2013-04-30 02:13:00,
2013-04-29 21:18:00,72.7,72.7,29.83,ENE,58,10.0,12.7,100,0.37,RA,,0.39,WeatherDisplay:10.37,2013-04-30 02:18:00,
2013-04-29 21:23:00,72.6,72.6,29.83,NE,54,10.2,14.3,100,0.45,RA,,0.48,WeatherDisplay:10.37,2013-04-30 02:23:00,
2013-04-29 21:28:00,72.6,72.6,29.83,ENE,76,12.0,16.1,100,0.48,RA,,0.52,WeatherDisplay:10.37,2013-04-30 02:28:00,
2013-04-29 21:33:00,72.6,72.6,29.83,ENE,75,13.4,18.4,100,0.50,RA,,0.54,WeatherDisplay:10.37,2013-04-30 02:33:00,
2013-04-29 21:38:00,72.2,72.2,29.84,East,93,7.1,11.5,100,0.50,RA,,0.55,WeatherDisplay:10.37,2013-04-30 02:38:00,
2013-04-29 21:43:00,72.0,72.0,29.85,East,83,7.5,13.8,100,0.47,RA,,0.57,WeatherDisplay:10.37,2013-04-30 02:43:00,
2013-04-29 21:48:00,71.7,71.7,29.85,East,80,5.4,9.2,100,0.47,RA,,0.57,WeatherDisplay:10.37,2013-04-30 02:48:00,
2013-04-29 21:53:00,71.7,71.7,29.85,East,82,8.5,11.5,100,0.46,RA,,0.57,WeatherDisplay:10.37,2013-04-30 02:53:00,
2013-04-29 21:58:00,71.8,71.8,29.85,East,83,7.7,11.5,100,0.45,RA,,0.57,WeatherDisplay:10.37,2013-04-30 02:58:00,
2013-04-29 22:03:00,71.6,71.6,29.85,East,96,6.8,11.5,100,0.38,CLR,,0.57,WeatherDisplay:10.37,2013-04-30 03:03:00,
2013-04-29 22:08:00,70.7,70.7,29.85,SSE,148,8.2,11.5,100,0.29,RA,,0.58,WeatherDisplay:10.37,2013-04-30 03:08:00,
2013-04-29 22:13:00,69.9,69.9,29.85,SE,124,5.0,12.7,100,0.23,RA,,0.58,WeatherDisplay:10.37,2013-04-30 03:13:00,
2013-04-29 22:18:00,69.9,69.9,29.85,SE,134,5.5,8.1,100,0.19,RA,,0.58,WeatherDisplay:10.37,2013-04-30 03:18:00,
2013-04-29 22:23:00,70.0,70.0,29.85,East,83,5.5,9.2,100,0.09,RA,,0.58,WeatherDisplay:10.37,2013-04-30 03:23:00,
2013-04-29 22:28:00,70.3,70.3,29.85,ESE,113,6.9,10.4,100,0.07,,,0.58,WeatherDisplay:10.37,2013-04-30 03:28:00,
2013-04-29 22:33:00,70.4,70.4,29.85,East,79,7.7,11.1,100,0.04,CLR,,0.58,WeatherDisplay:10.37,2013-04-30 03:33:00,
2013-04-29 22:38:00,70.5,70.5,29.85,ENE,75,7.4,9.4,100,0.03,CLR,,0.58,WeatherDisplay:10.37,2013-04-30 03:38:00,
2013-04-29 22:43:00,70.7,70.7,29.85,ENE,75,6.0,9.2,100,0.01,CLR,,0.58,WeatherDisplay:10.37,2013-04-30 03:43:00,
2013-04-29 22:48:00,70.6,70.6,29.85,East,96,12.0,16.7,100,0.01,CLR,,0.58,WeatherDisplay:10.37,2013-04-30 03:48:00,
2013-04-29 22:53:00,70.7,70.7,29.85,ENE,78,12.9,19.4,100,0.01,CLR,,0.58,WeatherDisplay:10.37,2013-04-30 03:53:00,
2013-04-29 22:59:00,70.7,70.7,29.85,ESE,107,8.7,12.7,100,0.01,CLR,,0.58,WeatherDisplay:10.37,2013-04-30 03:59:00,
2013-04-29 23:01:00,70.9,70.9,29.85,East,96,12.5,15.0,100,0.01,CLR,,0.58,WeatherDisplay:10.37,2013-04-30 04:01:00,
2013-04-29 23:02:00,70.9,70.9,29.85,East,95,11.3,16.1,100,0.01,CLR,,0.58,WeatherDisplay:10.37,2013-04-30 04:02:00,
2013-04-29 23:03:00,71.0,71.0,29.85,SE,127,11.5,15.0,100,0.01,CLR,,0.58,WeatherDisplay:10.37,2013-04-30 04:03:00,
2013-04-29 23:05:00,71.0,71.0,29.85,ENE,73,12.9,18.4,100,0.01,CLR,,0.58,WeatherDisplay:10.37,2013-04-30 04:05:00,
2013-04-29 23:10:00,71.2,71.2,29.85,East,95,10.1,16.1,100,0.00,CLR,,0.58,WeatherDisplay:10.37,2013-04-30 04:10:00,
2013-04-29 23:15:00,71.3,71.3,29.85,ESE,106,16.1,16.9,100,0.00,,,0.58,WeatherDisplay:10.37,2013-04-30 04:15:00,
2013-04-29 23:20:00,71.2,71.2,29.84,ESE,106,14.3,21.1,100,0.00,RA,,0.58,WeatherDisplay:10.37,2013-04-30 04:20:00,
2013-04-29 23:25:00,70.9,70.9,29.84,East,90,14.0,18.4,100,0.00,RA,,0.58,WeatherDisplay:10.37,2013-04-30 04:25:00,
2013-04-29 23:30:00,71.1,71.1,29.84,East,92,12.6,19.6,100,0.00,RA,,0.58,WeatherDisplay:10.37,2013-04-30 04:30:00,
2013-04-29 23:35:00,71.2,71.2,29.84,ESE,113,9.0,16.1,100,0.00,RA,,0.58,WeatherDisplay:10.37,2013-04-30 04:35:00,
2013-04-29 23:41:00,71.2,71.2,29.85,East,82,10.5,15.0,100,0.00,CLR,,0.58,WeatherDisplay:10.37,2013-04-30 04:41:00,
2013-04-29 23:46:00,71.1,71.1,29.85,East,90,12.9,16.9,100,0.00,CLR,,0.58,WeatherDisplay:10.37,2013-04-30 04:46:00,
2013-04-29 23:51:00,71.1,71.1,29.84,SE,124,7.6,11.9,100,0.00,CLR,,0.58,WeatherDisplay:10.37,2013-04-30 04:51:00,
2013-04-29 23:56:00,70.9,70.9,29.84,East,93,11.0,17.0,100,0.00,CLR,,0.58,WeatherDisplay:10.37,2013-04-30 04:56:00,